sensor_id;sensor_type;location;lat;lon;timestamp;pressure;altitude;pressure_sealevel;temperature;humidity
62847;BME280;49477;35.676;139.586;2023-05-24T00:01:28;100447.04;;;20.63;28.10
62847;BME280;49477;35.676;139.586;2023-05-24T00:03:57;100442.75;;;21.48;28.76
62847;BME280;49477;35.676;139.586;2023-05-24T00:06:28;100443.46;;;21.22;28.63
62847;BME280;49477;35.676;139.586;2023-05-24T00:08:57;100436.08;;;21.52;28.42
62847;BME280;49477;35.676;139.586;2023-05-24T00:11:27;100439.89;;;21.57;29.15
62847;BME280;49477;35.676;139.586;2023-05-24T00:13:56;100454.45;;;21.36;28.53
62847;BME280;49477;35.676;139.586;2023-05-24T00:16:26;100440.17;;;21.53;28.43
62847;BME280;49477;35.676;139.586;2023-05-24T00:18:55;100428.80;;;21.85;28.42
62847;BME280;49477;35.676;139.586;2023-05-24T00:21:25;100434.70;;;21.01;28.14
62847;BME280;49477;35.676;139.586;2023-05-24T00:23:54;100441.37;;;21.38;27.94
62847;BME280;49477;35.676;139.586;2023-05-24T00:26:24;100437.38;;;21.89;28.13
62847;BME280;49477;35.676;139.586;2023-05-24T00:28:53;100441.30;;;22.04;28.36
62847;BME280;49477;35.676;139.586;2023-05-24T00:31:22;100445.07;;;21.38;27.73
62847;BME280;49477;35.676;139.586;2023-05-24T00:33:52;100453.55;;;21.09;27.93
62847;BME280;49477;35.676;139.586;2023-05-24T00:36:21;100453.71;;;21.47;27.56
62847;BME280;49477;35.676;139.586;2023-05-24T00:38:51;100445.46;;;21.07;26.64
62847;BME280;49477;35.676;139.586;2023-05-24T00:41:20;100439.04;;;21.49;27.16
62847;BME280;49477;35.676;139.586;2023-05-24T00:43:50;100446.35;;;21.02;26.88
62847;BME280;49477;35.676;139.586;2023-05-24T00:46:26;100451.53;;;21.96;26.68
62847;BME280;49477;35.676;139.586;2023-05-24T00:48:57;100449.86;;;21.83;26.63
62847;BME280;49477;35.676;139.586;2023-05-24T00:51:26;100452.90;;;22.19;26.55
62847;BME280;49477;35.676;139.586;2023-05-24T00:53:56;100449.92;;;21.90;26.68
62847;BME280;49477;35.676;139.586;2023-05-24T00:56:25;100459.63;;;22.35;27.29
62847;BME280;49477;35.676;139.586;2023-05-24T00:58:55;100460.75;;;21.68;26.83
62847;BME280;49477;35.676;139.586;2023-05-24T01:01:25;100449.76;;;21.71;26.39
62847;BME280;49477;35.676;139.586;2023-05-24T01:03:54;100461.65;;;21.59;26.58
62847;BME280;49477;35.676;139.586;2023-05-24T01:06:24;100460.27;;;22.26;26.70
62847;BME280;49477;35.676;139.586;2023-05-24T01:09:08;100457.85;;;22.26;26.70
62847;BME280;49477;35.676;139.586;2023-05-24T01:11:52;100454.25;;;22.22;26.41
62847;BME280;49477;35.676;139.586;2023-05-24T01:14:29;100453.75;;;22.25;26.63
62847;BME280;49477;35.676;139.586;2023-05-24T01:17:05;100448.56;;;22.32;25.96
62847;BME280;49477;35.676;139.586;2023-05-24T01:19:48;100459.14;;;22.08;25.70
62847;BME280;49477;35.676;139.586;2023-05-24T01:22:46;100464.07;;;22.24;25.79
62847;BME280;49477;35.676;139.586;2023-05-24T01:25:34;100462.98;;;23.01;25.84
62847;BME280;49477;35.676;139.586;2023-05-24T01:28:08;100451.88;;;22.71;25.96
62847;BME280;49477;35.676;139.586;2023-05-24T01:30:40;100443.75;;;22.44;26.15
62847;BME280;49477;35.676;139.586;2023-05-24T01:33:10;100445.52;;;22.94;25.73
62847;BME280;49477;35.676;139.586;2023-05-24T01:35:40;100447.50;;;22.78;25.40
62847;BME280;49477;35.676;139.586;2023-05-24T01:38:09;100452.89;;;22.61;25.75
62847;BME280;49477;35.676;139.586;2023-05-24T01:40:39;100444.60;;;22.41;25.10
62847;BME280;49477;35.676;139.586;2023-05-24T01:43:16;100431.76;;;23.32;26.10
62847;BME280;49477;35.676;139.586;2023-05-24T01:45:53;100443.12;;;22.81;25.03
62847;BME280;49477;35.676;139.586;2023-05-24T01:48:33;100446.88;;;22.55;24.54
62847;BME280;49477;35.676;139.586;2023-05-24T01:51:07;100446.27;;;22.84;24.79
62847;BME280;49477;35.676;139.586;2023-05-24T01:53:43;100451.46;;;22.78;24.81
62847;BME280;49477;35.676;139.586;2023-05-24T01:56:16;100464.48;;;22.76;24.45
62847;BME280;49477;35.676;139.586;2023-05-24T01:58:47;100462.24;;;22.76;23.93
62847;BME280;49477;35.676;139.586;2023-05-24T02:01:18;100465.95;;;23.27;24.22
62847;BME280;49477;35.676;139.586;2023-05-24T02:03:48;100469.25;;;23.19;24.42
62847;BME280;49477;35.676;139.586;2023-05-24T02:06:17;100465.57;;;23.16;24.00
62847;BME280;49477;35.676;139.586;2023-05-24T02:08:47;100460.71;;;24.24;25.08
62847;BME280;49477;35.676;139.586;2023-05-24T02:11:16;100465.34;;;23.20;24.49
62847;BME280;49477;35.676;139.586;2023-05-24T02:13:46;100465.18;;;23.10;23.85
62847;BME280;49477;35.676;139.586;2023-05-24T02:16:15;100461.63;;;23.70;24.13
62847;BME280;49477;35.676;139.586;2023-05-24T02:18:45;100476.17;;;23.12;23.68
62847;BME280;49477;35.676;139.586;2023-05-24T02:21:14;100473.98;;;23.54;24.23
62847;BME280;49477;35.676;139.586;2023-05-24T02:23:43;100463.65;;;23.51;24.43
62847;BME280;49477;35.676;139.586;2023-05-24T02:26:13;100471.74;;;23.41;24.91
62847;BME280;49477;35.676;139.586;2023-05-24T02:28:43;100465.83;;;24.15;25.26
62847;BME280;49477;35.676;139.586;2023-05-24T02:31:12;100470.42;;;23.36;23.44
62847;BME280;49477;35.676;139.586;2023-05-24T02:33:41;100473.79;;;22.93;23.41
62847;BME280;49477;35.676;139.586;2023-05-24T02:36:11;100478.04;;;23.50;23.37
62847;BME280;49477;35.676;139.586;2023-05-24T02:38:40;100465.78;;;23.69;23.22
62847;BME280;49477;35.676;139.586;2023-05-24T02:41:10;100471.99;;;24.20;23.43
62847;BME280;49477;35.676;139.586;2023-05-24T02:43:39;100475.66;;;24.00;23.16
62847;BME280;49477;35.676;139.586;2023-05-24T02:46:09;100468.00;;;23.62;22.80
62847;BME280;49477;35.676;139.586;2023-05-24T02:48:38;100472.56;;;24.08;22.81
62847;BME280;49477;35.676;139.586;2023-05-24T02:51:08;100475.05;;;23.69;22.47
62847;BME280;49477;35.676;139.586;2023-05-24T02:53:37;100489.23;;;23.39;22.23
62847;BME280;49477;35.676;139.586;2023-05-24T02:56:07;100479.18;;;23.72;22.50
62847;BME280;49477;35.676;139.586;2023-05-24T02:58:36;100476.08;;;24.27;22.47
62847;BME280;49477;35.676;139.586;2023-05-24T03:01:05;100474.76;;;23.91;23.06
62847;BME280;49477;35.676;139.586;2023-05-24T03:03:34;100474.16;;;24.41;23.77
62847;BME280;49477;35.676;139.586;2023-05-24T03:06:04;100475.78;;;24.00;22.91
62847;BME280;49477;35.676;139.586;2023-05-24T03:08:33;100466.78;;;24.22;23.75
62847;BME280;49477;35.676;139.586;2023-05-24T03:11:03;100467.49;;;24.40;24.28
62847;BME280;49477;35.676;139.586;2023-05-24T03:13:38;100464.11;;;24.51;23.63
62847;BME280;49477;35.676;139.586;2023-05-24T03:16:07;100471.26;;;24.19;23.69
62847;BME280;49477;35.676;139.586;2023-05-24T03:18:36;100472.79;;;24.40;23.45
62847;BME280;49477;35.676;139.586;2023-05-24T03:21:05;100467.49;;;23.73;23.58
62847;BME280;49477;35.676;139.586;2023-05-24T03:23:34;100469.78;;;24.56;23.44
62847;BME280;49477;35.676;139.586;2023-05-24T03:26:04;100460.72;;;24.63;23.84
62847;BME280;49477;35.676;139.586;2023-05-24T03:28:33;100455.68;;;24.71;24.03
62847;BME280;49477;35.676;139.586;2023-05-24T03:31:03;100449.44;;;24.55;23.85
62847;BME280;49477;35.676;139.586;2023-05-24T03:33:32;100450.47;;;24.62;23.71
62847;BME280;49477;35.676;139.586;2023-05-24T03:36:02;100435.76;;;24.40;23.87
62847;BME280;49477;35.676;139.586;2023-05-24T03:38:31;100446.68;;;24.43;23.78
62847;BME280;49477;35.676;139.586;2023-05-24T03:41:01;100453.30;;;24.64;24.71
62847;BME280;49477;35.676;139.586;2023-05-24T03:43:30;100441.69;;;24.78;24.55
62847;BME280;49477;35.676;139.586;2023-05-24T03:46:00;100429.33;;;24.14;24.08
62847;BME280;49477;35.676;139.586;2023-05-24T03:48:29;100435.91;;;24.54;24.12
62847;BME280;49477;35.676;139.586;2023-05-24T03:50:59;100438.92;;;25.38;24.84
62847;BME280;49477;35.676;139.586;2023-05-24T03:53:28;100443.94;;;24.51;24.36
62847;BME280;49477;35.676;139.586;2023-05-24T03:55:58;100450.18;;;24.46;23.77
62847;BME280;49477;35.676;139.586;2023-05-24T03:58:27;100454.83;;;24.81;24.21
62847;BME280;49477;35.676;139.586;2023-05-24T04:00:56;100449.99;;;24.57;23.82
62847;BME280;49477;35.676;139.586;2023-05-24T04:03:26;100449.19;;;25.08;23.78
62847;BME280;49477;35.676;139.586;2023-05-24T04:05:55;100453.64;;;24.87;24.43
62847;BME280;49477;35.676;139.586;2023-05-24T04:08:25;100457.82;;;24.71;24.34
62847;BME280;49477;35.676;139.586;2023-05-24T04:10:54;100456.61;;;24.72;24.38
62847;BME280;49477;35.676;139.586;2023-05-24T04:13:24;100462.78;;;25.23;24.25
62847;BME280;49477;35.676;139.586;2023-05-24T04:15:53;100457.87;;;25.06;24.22
62847;BME280;49477;35.676;139.586;2023-05-24T04:18:23;100447.00;;;25.40;24.18
62847;BME280;49477;35.676;139.586;2023-05-24T04:20:52;100460.27;;;25.04;24.08
62847;BME280;49477;35.676;139.586;2023-05-24T04:23:22;100453.80;;;25.35;24.06
62847;BME280;49477;35.676;139.586;2023-05-24T04:25:51;100467.27;;;25.01;23.99
62847;BME280;49477;35.676;139.586;2023-05-24T04:28:21;100470.73;;;25.34;24.46
62847;BME280;49477;35.676;139.586;2023-05-24T04:30:51;100468.88;;;24.99;24.54
62847;BME280;49477;35.676;139.586;2023-05-24T04:33:20;100475.46;;;24.87;23.85
62847;BME280;49477;35.676;139.586;2023-05-24T04:35:50;100487.86;;;25.39;23.92
62847;BME280;49477;35.676;139.586;2023-05-24T04:38:19;100489.15;;;24.84;23.80
62847;BME280;49477;35.676;139.586;2023-05-24T04:40:48;100490.23;;;25.06;23.35
62847;BME280;49477;35.676;139.586;2023-05-24T04:43:18;100492.04;;;25.45;24.25
62847;BME280;49477;35.676;139.586;2023-05-24T04:45:47;100487.09;;;24.36;23.60
62847;BME280;49477;35.676;139.586;2023-05-24T04:48:17;100483.78;;;24.78;24.34
62847;BME280;49477;35.676;139.586;2023-05-24T04:50:46;100482.00;;;25.43;24.50
62847;BME280;49477;35.676;139.586;2023-05-24T04:53:16;100477.78;;;24.48;24.04
62847;BME280;49477;35.676;139.586;2023-05-24T04:55:45;100484.85;;;25.84;24.49
62847;BME280;49477;35.676;139.586;2023-05-24T04:58:15;100492.46;;;25.27;24.06
62847;BME280;49477;35.676;139.586;2023-05-24T05:00:45;100487.06;;;25.87;24.42
62847;BME280;49477;35.676;139.586;2023-05-24T05:03:14;100496.76;;;25.26;23.04
62847;BME280;49477;35.676;139.586;2023-05-24T05:05:43;100500.12;;;25.40;23.30
62847;BME280;49477;35.676;139.586;2023-05-24T05:08:13;100502.88;;;25.24;23.37
62847;BME280;49477;35.676;139.586;2023-05-24T05:10:42;100514.60;;;25.38;23.67
62847;BME280;49477;35.676;139.586;2023-05-24T05:13:11;100511.56;;;25.98;23.51
62847;BME280;49477;35.676;139.586;2023-05-24T05:15:41;100516.92;;;25.62;22.37
62847;BME280;49477;35.676;139.586;2023-05-24T05:18:10;100520.82;;;25.65;22.53
62847;BME280;49477;35.676;139.586;2023-05-24T05:20:40;100520.92;;;26.19;22.58
62847;BME280;49477;35.676;139.586;2023-05-24T05:23:09;100528.66;;;25.44;22.95
62847;BME280;49477;35.676;139.586;2023-05-24T05:25:39;100523.45;;;25.67;21.63
62847;BME280;49477;35.676;139.586;2023-05-24T05:28:08;100529.42;;;25.48;21.72
62847;BME280;49477;35.676;139.586;2023-05-24T05:30:38;100531.87;;;25.83;21.68
62847;BME280;49477;35.676;139.586;2023-05-24T05:33:07;100529.11;;;25.58;21.53
62847;BME280;49477;35.676;139.586;2023-05-24T05:35:37;100525.29;;;25.82;22.10
62847;BME280;49477;35.676;139.586;2023-05-24T05:38:06;100525.07;;;25.47;21.86
62847;BME280;49477;35.676;139.586;2023-05-24T05:40:35;100530.50;;;25.16;21.35
62847;BME280;49477;35.676;139.586;2023-05-24T05:43:05;100533.98;;;25.63;21.14
62847;BME280;49477;35.676;139.586;2023-05-24T05:45:34;100534.70;;;25.64;21.32
62847;BME280;49477;35.676;139.586;2023-05-24T05:48:04;100529.69;;;25.68;21.00
62847;BME280;49477;35.676;139.586;2023-05-24T05:50:33;100523.54;;;26.04;21.27
62847;BME280;49477;35.676;139.586;2023-05-24T05:53:03;100533.37;;;26.01;21.22
62847;BME280;49477;35.676;139.586;2023-05-24T05:55:32;100544.85;;;25.59;20.85
62847;BME280;49477;35.676;139.586;2023-05-24T05:58:02;100545.01;;;25.70;21.52
62847;BME280;49477;35.676;139.586;2023-05-24T06:00:31;100547.30;;;26.28;22.74
62847;BME280;49477;35.676;139.586;2023-05-24T06:03:01;100550.83;;;26.04;21.24
62847;BME280;49477;35.676;139.586;2023-05-24T06:05:30;100555.52;;;25.88;21.02
62847;BME280;49477;35.676;139.586;2023-05-24T06:07:59;100550.51;;;26.23;21.14
62847;BME280;49477;35.676;139.586;2023-05-24T06:10:29;100563.03;;;25.96;21.28
62847;BME280;49477;35.676;139.586;2023-05-24T06:13:00;100575.90;;;25.77;20.38
62847;BME280;49477;35.676;139.586;2023-05-24T06:15:29;100568.29;;;26.35;21.46
62847;BME280;49477;35.676;139.586;2023-05-24T06:17:58;100578.17;;;25.93;21.22
62847;BME280;49477;35.676;139.586;2023-05-24T06:20:28;100584.31;;;26.10;21.22
62847;BME280;49477;35.676;139.586;2023-05-24T06:22:57;100581.17;;;26.61;22.72
62847;BME280;49477;35.676;139.586;2023-05-24T06:25:27;100591.52;;;26.02;21.64
62847;BME280;49477;35.676;139.586;2023-05-24T06:27:56;100595.73;;;26.24;21.32
62847;BME280;49477;35.676;139.586;2023-05-24T06:30:26;100597.70;;;26.45;22.03
62847;BME280;49477;35.676;139.586;2023-05-24T06:32:54;100601.70;;;26.52;21.33
62847;BME280;49477;35.676;139.586;2023-05-24T06:35:24;100606.57;;;26.05;21.02
62847;BME280;49477;35.676;139.586;2023-05-24T06:37:53;100602.71;;;26.00;21.15
62847;BME280;49477;35.676;139.586;2023-05-24T06:40:23;100612.52;;;25.94;20.98
62847;BME280;49477;35.676;139.586;2023-05-24T06:42:52;100613.28;;;26.34;20.75
62847;BME280;49477;35.676;139.586;2023-05-24T06:45:22;100607.63;;;26.67;20.66
62847;BME280;49477;35.676;139.586;2023-05-24T06:47:51;100610.75;;;26.85;21.50
62847;BME280;49477;35.676;139.586;2023-05-24T06:50:21;100616.69;;;26.88;22.72
62847;BME280;49477;35.676;139.586;2023-05-24T06:52:50;100617.77;;;26.72;22.39
62847;BME280;49477;35.676;139.586;2023-05-24T06:55:20;100611.55;;;26.97;23.50
62847;BME280;49477;35.676;139.586;2023-05-24T06:57:49;100614.14;;;26.71;22.53
62847;BME280;49477;35.676;139.586;2023-05-24T07:00:19;100620.06;;;26.52;21.59
62847;BME280;49477;35.676;139.586;2023-05-24T07:02:48;100622.28;;;26.49;20.78
62847;BME280;49477;35.676;139.586;2023-05-24T07:05:18;100634.08;;;26.36;20.19
62847;BME280;49477;35.676;139.586;2023-05-24T07:07:47;100631.34;;;26.34;20.51
62847;BME280;49477;35.676;139.586;2023-05-24T07:10:17;100635.76;;;26.67;20.15
62847;BME280;49477;35.676;139.586;2023-05-24T07:12:46;100637.00;;;27.46;20.39
62847;BME280;49477;35.676;139.586;2023-05-24T07:15:16;100651.35;;;26.86;21.04
62847;BME280;49477;35.676;139.586;2023-05-24T07:17:45;100645.19;;;27.73;21.03
62847;BME280;49477;35.676;139.586;2023-05-24T07:20:15;100651.76;;;27.43;21.48
62847;BME280;49477;35.676;139.586;2023-05-24T07:22:44;100657.35;;;27.42;20.76
62847;BME280;49477;35.676;139.586;2023-05-24T07:25:14;100664.04;;;27.18;20.00
62847;BME280;49477;35.676;139.586;2023-05-24T07:27:43;100667.43;;;27.42;20.10
62847;BME280;49477;35.676;139.586;2023-05-24T07:30:13;100672.97;;;27.31;19.90
62847;BME280;49477;35.676;139.586;2023-05-24T07:32:42;100670.65;;;27.09;18.58
62847;BME280;49477;35.676;139.586;2023-05-24T07:35:12;100675.57;;;27.53;19.26
62847;BME280;49477;35.676;139.586;2023-05-24T07:37:41;100680.63;;;27.88;19.29
62847;BME280;49477;35.676;139.586;2023-05-24T07:40:11;100690.17;;;27.94;19.35
62847;BME280;49477;35.676;139.586;2023-05-24T07:42:40;100694.71;;;28.04;19.63
62847;BME280;49477;35.676;139.586;2023-05-24T07:45:10;100700.23;;;27.74;19.22
62847;BME280;49477;35.676;139.586;2023-05-24T07:47:39;100701.43;;;28.19;18.57
62847;BME280;49477;35.676;139.586;2023-05-24T07:50:10;100707.30;;;27.88;18.44
62847;BME280;49477;35.676;139.586;2023-05-24T07:52:39;100712.55;;;28.20;18.72
62847;BME280;49477;35.676;139.586;2023-05-24T07:55:09;100720.03;;;27.63;18.22
62847;BME280;49477;35.676;139.586;2023-05-24T07:57:38;100724.50;;;28.23;18.32
62847;BME280;49477;35.676;139.586;2023-05-24T08:00:08;100730.37;;;27.46;17.90
62847;BME280;49477;35.676;139.586;2023-05-24T08:02:38;100732.23;;;27.81;17.99
62847;BME280;49477;35.676;139.586;2023-05-24T08:05:08;100743.14;;;28.43;18.55
62847;BME280;49477;35.676;139.586;2023-05-24T08:07:38;100749.54;;;28.24;18.78
62847;BME280;49477;35.676;139.586;2023-05-24T08:10:09;100756.20;;;28.21;17.98
62847;BME280;49477;35.676;139.586;2023-05-24T08:12:38;100767.63;;;27.67;18.65
62847;BME280;49477;35.676;139.586;2023-05-24T08:15:08;100770.40;;;28.20;19.30
62847;BME280;49477;35.676;139.586;2023-05-24T08:17:38;100773.44;;;28.25;20.21
62847;BME280;49477;35.676;139.586;2023-05-24T08:20:08;100772.27;;;27.85;18.57
62847;BME280;49477;35.676;139.586;2023-05-24T08:22:37;100775.84;;;28.36;18.37
62847;BME280;49477;35.676;139.586;2023-05-24T08:25:07;100774.16;;;27.86;18.25
62847;BME280;49477;35.676;139.586;2023-05-24T08:27:36;100779.33;;;28.23;18.02
62847;BME280;49477;35.676;139.586;2023-05-24T08:30:06;100778.45;;;28.02;18.18
62847;BME280;49477;35.676;139.586;2023-05-24T08:32:35;100785.29;;;27.99;17.79
62847;BME280;49477;35.676;139.586;2023-05-24T08:35:04;100792.28;;;28.27;17.52
62847;BME280;49477;35.676;139.586;2023-05-24T08:37:33;100792.87;;;28.22;17.41
62847;BME280;49477;35.676;139.586;2023-05-24T08:40:03;100794.99;;;28.14;17.49
62847;BME280;49477;35.676;139.586;2023-05-24T08:42:32;100794.91;;;28.52;18.34
62847;BME280;49477;35.676;139.586;2023-05-24T08:45:09;100801.88;;;28.06;17.70
62847;BME280;49477;35.676;139.586;2023-05-24T08:47:40;100803.60;;;28.40;18.12
62847;BME280;49477;35.676;139.586;2023-05-24T08:50:11;100803.29;;;27.79;17.46
62847;BME280;49477;35.676;139.586;2023-05-24T08:52:42;100808.61;;;28.06;17.47
62847;BME280;49477;35.676;139.586;2023-05-24T08:55:11;100809.74;;;28.35;17.57
62847;BME280;49477;35.676;139.586;2023-05-24T08:57:41;100818.07;;;28.00;17.31
62847;BME280;49477;35.676;139.586;2023-05-24T09:00:13;100821.28;;;28.04;17.32
62847;BME280;49477;35.676;139.586;2023-05-24T09:02:44;100831.00;;;27.98;17.35
62847;BME280;49477;35.676;139.586;2023-05-24T09:05:14;100837.09;;;28.02;17.26
62847;BME280;49477;35.676;139.586;2023-05-24T09:07:45;100841.38;;;27.58;16.97
62847;BME280;49477;35.676;139.586;2023-05-24T09:10:14;100841.53;;;27.92;16.84
62847;BME280;49477;35.676;139.586;2023-05-24T09:12:46;100851.69;;;27.85;16.87
62847;BME280;49477;35.676;139.586;2023-05-24T09:15:16;100861.88;;;27.91;16.85
62847;BME280;49477;35.676;139.586;2023-05-24T09:17:45;100868.12;;;27.79;17.04
62847;BME280;49477;35.676;139.586;2023-05-24T09:20:15;100872.71;;;27.82;17.19
62847;BME280;49477;35.676;139.586;2023-05-24T09:22:50;100875.41;;;27.85;17.29
62847;BME280;49477;35.676;139.586;2023-05-24T09:25:20;100881.18;;;27.72;17.67
62847;BME280;49477;35.676;139.586;2023-05-24T09:27:51;100883.86;;;27.10;17.36
62847;BME280;49477;35.676;139.586;2023-05-24T09:30:20;100889.28;;;27.56;17.34
62847;BME280;49477;35.676;139.586;2023-05-24T09:32:59;100895.58;;;27.34;17.73
62847;BME280;49477;35.676;139.586;2023-05-24T09:35:28;100904.13;;;27.18;17.62
62847;BME280;49477;35.676;139.586;2023-05-24T09:37:58;100908.31;;;27.38;17.86
62847;BME280;49477;35.676;139.586;2023-05-24T09:40:28;100915.08;;;27.17;18.00
62847;BME280;49477;35.676;139.586;2023-05-24T09:43:06;100918.41;;;27.36;18.31
62847;BME280;49477;35.676;139.586;2023-05-24T09:45:41;100919.05;;;26.80;18.29
62847;BME280;49477;35.676;139.586;2023-05-24T09:48:12;100923.51;;;26.63;18.26
62847;BME280;49477;35.676;139.586;2023-05-24T09:50:41;100931.07;;;26.45;18.62
62847;BME280;49477;35.676;139.586;2023-05-24T09:53:11;100936.99;;;26.32;18.72
62847;BME280;49477;35.676;139.586;2023-05-24T09:55:40;100938.38;;;26.28;18.80
62847;BME280;49477;35.676;139.586;2023-05-24T09:58:10;100949.90;;;26.01;18.96
62847;BME280;49477;35.676;139.586;2023-05-24T10:00:40;100958.71;;;25.90;19.12
62847;BME280;49477;35.676;139.586;2023-05-24T10:03:10;100962.76;;;25.72;19.09
62847;BME280;49477;35.676;139.586;2023-05-24T10:05:42;100968.05;;;26.15;19.39
62847;BME280;49477;35.676;139.586;2023-05-24T10:08:12;100967.78;;;26.08;19.47
62847;BME280;49477;35.676;139.586;2023-05-24T10:10:42;100967.90;;;25.48;19.57
62847;BME280;49477;35.676;139.586;2023-05-24T10:13:11;100966.72;;;25.65;19.52
62847;BME280;49477;35.676;139.586;2023-05-24T10:15:41;100971.28;;;25.67;19.58
62847;BME280;49477;35.676;139.586;2023-05-24T10:18:10;100971.45;;;25.31;19.84
62847;BME280;49477;35.676;139.586;2023-05-24T10:20:40;100978.92;;;25.34;19.92
62847;BME280;49477;35.676;139.586;2023-05-24T10:23:10;100986.92;;;25.27;20.07
62847;BME280;49477;35.676;139.586;2023-05-24T10:25:57;100995.60;;;25.21;19.93
62847;BME280;49477;35.676;139.586;2023-05-24T10:28:28;100998.02;;;25.21;20.25
62847;BME280;49477;35.676;139.586;2023-05-24T10:31:06;100996.61;;;25.58;20.21
62847;BME280;49477;35.676;139.586;2023-05-24T10:33:38;100995.55;;;25.05;20.55
62847;BME280;49477;35.676;139.586;2023-05-24T10:36:10;100993.65;;;24.98;20.64
62847;BME280;49477;35.676;139.586;2023-05-24T10:38:41;100991.85;;;24.93;20.67
62847;BME280;49477;35.676;139.586;2023-05-24T10:41:11;100997.57;;;24.96;20.61
62847;BME280;49477;35.676;139.586;2023-05-24T10:43:40;101003.07;;;25.23;20.57
62847;BME280;49477;35.676;139.586;2023-05-24T10:46:15;101013.59;;;24.95;20.56
62847;BME280;49477;35.676;139.586;2023-05-24T10:48:44;101017.56;;;24.68;20.86
62847;BME280;49477;35.676;139.586;2023-05-24T10:51:35;101022.61;;;24.86;21.10
62847;BME280;49477;35.676;139.586;2023-05-24T10:54:14;101034.42;;;24.38;20.96
62847;BME280;49477;35.676;139.586;2023-05-24T10:56:46;101042.77;;;24.99;20.85
62847;BME280;49477;35.676;139.586;2023-05-24T10:59:33;101053.16;;;24.73;21.01
62847;BME280;49477;35.676;139.586;2023-05-24T11:02:05;101065.50;;;24.63;20.91
62847;BME280;49477;35.676;139.586;2023-05-24T11:04:38;101075.49;;;24.61;21.12
62847;BME280;49477;35.676;139.586;2023-05-24T11:07:08;101083.77;;;24.00;20.97
62847;BME280;49477;35.676;139.586;2023-05-24T11:09:38;101089.34;;;24.68;21.11
62847;BME280;49477;35.676;139.586;2023-05-24T11:12:08;101092.90;;;24.19;20.92
62847;BME280;49477;35.676;139.586;2023-05-24T11:14:38;101093.40;;;24.11;21.04
62847;BME280;49477;35.676;139.586;2023-05-24T11:17:08;101096.12;;;24.16;21.23
62847;BME280;49477;35.676;139.586;2023-05-24T11:19:44;101106.18;;;24.12;21.33
62847;BME280;49477;35.676;139.586;2023-05-24T11:22:14;101120.81;;;24.10;21.40
62847;BME280;49477;35.676;139.586;2023-05-24T11:24:43;101127.43;;;23.98;21.81
62847;BME280;49477;35.676;139.586;2023-05-24T11:27:13;101133.42;;;24.02;21.78
62847;BME280;49477;35.676;139.586;2023-05-24T11:29:43;101139.15;;;24.26;21.70
62847;BME280;49477;35.676;139.586;2023-05-24T11:32:17;101135.00;;;23.62;22.08
62847;BME280;49477;35.676;139.586;2023-05-24T11:34:47;101138.57;;;24.03;22.27
62847;BME280;49477;35.676;139.586;2023-05-24T11:37:17;101140.10;;;23.57;22.19
62847;BME280;49477;35.676;139.586;2023-05-24T11:39:50;101132.40;;;23.61;22.32
62847;BME280;49477;35.676;139.586;2023-05-24T11:42:21;101134.17;;;23.74;22.69
62847;BME280;49477;35.676;139.586;2023-05-24T11:44:51;101136.15;;;23.62;22.46
62847;BME280;49477;35.676;139.586;2023-05-24T11:47:21;101140.69;;;23.28;22.87
62847;BME280;49477;35.676;139.586;2023-05-24T11:49:51;101141.98;;;23.37;22.85
62847;BME280;49477;35.676;139.586;2023-05-24T11:52:20;101147.84;;;23.45;22.56
62847;BME280;49477;35.676;139.586;2023-05-24T11:54:50;101154.42;;;23.41;22.83
62847;BME280;49477;35.676;139.586;2023-05-24T11:57:21;101164.97;;;23.39;23.00
62847;BME280;49477;35.676;139.586;2023-05-24T11:59:51;101177.13;;;23.33;22.91
62847;BME280;49477;35.676;139.586;2023-05-24T12:02:21;101178.39;;;23.43;23.12
62847;BME280;49477;35.676;139.586;2023-05-24T12:04:50;101181.09;;;23.31;23.15
62847;BME280;49477;35.676;139.586;2023-05-24T12:07:19;101188.76;;;23.05;23.35
62847;BME280;49477;35.676;139.586;2023-05-24T12:09:51;101200.89;;;23.15;23.34
62847;BME280;49477;35.676;139.586;2023-05-24T12:12:22;101205.97;;;23.13;23.45
62847;BME280;49477;35.676;139.586;2023-05-24T12:14:55;101206.85;;;23.12;23.72
62847;BME280;49477;35.676;139.586;2023-05-24T12:17:25;101212.18;;;23.56;23.92
62847;BME280;49477;35.676;139.586;2023-05-24T12:19:55;101218.23;;;23.25;24.35
62847;BME280;49477;35.676;139.586;2023-05-24T12:22:28;101227.33;;;23.12;24.06
62847;BME280;49477;35.676;139.586;2023-05-24T12:24:58;101238.17;;;23.09;24.11
62847;BME280;49477;35.676;139.586;2023-05-24T12:27:28;101251.22;;;23.12;24.25
62847;BME280;49477;35.676;139.586;2023-05-24T12:29:58;101265.67;;;23.10;24.05
62847;BME280;49477;35.676;139.586;2023-05-24T12:32:34;101276.46;;;23.02;24.29
62847;BME280;49477;35.676;139.586;2023-05-24T12:35:05;101275.17;;;23.25;24.12
62847;BME280;49477;35.676;139.586;2023-05-24T12:37:34;101279.69;;;22.92;24.32
62847;BME280;49477;35.676;139.586;2023-05-24T12:40:12;101281.71;;;22.85;24.37
62847;BME280;49477;35.676;139.586;2023-05-24T12:42:43;101289.65;;;22.86;24.36
62847;BME280;49477;35.676;139.586;2023-05-24T12:45:12;101297.24;;;22.82;24.75
62847;BME280;49477;35.676;139.586;2023-05-24T12:47:42;101301.52;;;22.75;24.53